createdAt,value
2019-06-10T00:00:01.378Z,6.60
2019-06-10T00:02:30.898Z,7.70
2019-06-10T00:05:02.425Z,6.10
2019-06-10T00:07:31.574Z,7.07
2019-06-10T00:10:02.300Z,5.73
2019-06-10T00:12:32.208Z,6.60
2019-06-10T00:15:01.826Z,8.70
2019-06-10T00:17:31.659Z,7.40
2019-06-10T00:20:02.426Z,8.00
2019-06-10T00:22:31.543Z,5.67
2019-06-10T00:25:02.266Z,5.17
2019-06-10T00:27:31.133Z,6.00
2019-06-10T00:30:02.848Z,5.77
2019-06-10T00:32:32.045Z,5.67
2019-06-10T00:35:01.954Z,8.03
2019-06-10T00:37:31.502Z,6.27
2019-06-10T00:40:03.569Z,4.20
2019-06-10T00:42:31.449Z,4.17
2019-06-10T00:45:02.667Z,6.17
2019-06-10T00:47:30.782Z,5.00
2019-06-10T00:50:00.847Z,4.40
2019-06-10T00:52:30.891Z,5.73
2019-06-10T00:55:01.720Z,4.50
2019-06-10T00:57:31.445Z,6.60
2019-06-10T01:00:01.699Z,10.50
2019-06-10T01:02:31.876Z,6.23
2019-06-10T01:05:00.805Z,5.93
2019-06-10T01:07:31.094Z,5.00
2019-06-10T01:10:01.094Z,4.50
2019-06-10T01:12:31.615Z,6.53
2019-06-10T01:15:00.866Z,5.00
2019-06-10T01:17:31.134Z,5.00
2019-06-10T01:20:01.451Z,10.63
2019-06-10T01:22:31.470Z,5.20
2019-06-10T01:25:01.601Z,7.63
2019-06-10T01:27:31.517Z,7.60
2019-06-10T01:30:02.984Z,5.43
2019-06-10T01:32:31.212Z,6.43
2019-06-10T01:35:01.295Z,5.90
2019-06-10T01:37:31.119Z,6.60
2019-06-10T01:40:00.786Z,8.50
2019-06-10T01:42:30.680Z,6.53
2019-06-10T01:45:01.117Z,8.60
2019-06-10T01:47:30.966Z,9.77
2019-06-10T01:50:00.730Z,15.70
2019-06-10T01:52:31.550Z,11.60
2019-06-10T01:55:01.579Z,10.77
2019-06-10T01:57:30.859Z,11.67
2019-06-10T02:00:01.011Z,11.10
2019-06-10T02:02:34.516Z,11.03
2019-06-10T02:05:01.536Z,12.93
2019-06-10T02:07:31.810Z,9.70
2019-06-10T02:10:01.100Z,8.90
2019-06-10T02:12:31.553Z,10.40
2019-06-10T02:15:01.275Z,9.07
2019-06-10T02:17:31.443Z,8.17
2019-06-10T02:20:01.125Z,5.77
2019-06-10T02:22:31.676Z,10.53
2019-06-10T02:25:01.230Z,12.40
2019-06-10T02:27:31.466Z,9.00
2019-06-10T02:30:03.815Z,8.10
2019-06-10T02:32:36.167Z,8.17
2019-06-10T02:35:10.520Z,7.77
2019-06-10T02:37:32.669Z,8.30
2019-06-10T02:40:04.122Z,10.43
2019-06-10T02:42:35.835Z,8.17
2019-06-10T02:45:07.249Z,8.13
2019-06-10T02:47:37.983Z,7.40
2019-06-10T02:50:09.057Z,9.10
2019-06-10T02:52:38.728Z,8.50
2019-06-10T02:55:07.378Z,12.43
2019-06-10T02:57:39.953Z,8.03
2019-06-10T03:00:20.704Z,7.53
2019-06-10T03:02:44.934Z,9.60
2019-06-10T03:05:14.337Z,8.83
2019-06-10T03:07:44.442Z,8.67
2019-06-10T03:10:13.707Z,7.93
2019-06-10T03:12:42.496Z,9.40
2019-06-10T03:15:12.594Z,10.77
2019-06-10T03:17:42.921Z,11.03
2019-06-10T03:20:12.314Z,8.17
2019-06-10T03:22:42.325Z,7.37
2019-06-10T03:25:13.174Z,7.47
2019-06-10T03:27:42.444Z,8.30
2019-06-10T03:30:19.769Z,8.60
2019-06-10T03:32:46.944Z,6.90
2019-06-10T03:35:14.104Z,12.70
2019-06-10T03:37:42.568Z,7.10
2019-06-10T03:40:13.085Z,9.43
2019-06-10T03:42:42.790Z,8.50
2019-06-10T03:45:12.711Z,8.30
2019-06-10T03:47:42.667Z,7.10
2019-06-10T03:50:13.252Z,7.37
2019-06-10T03:52:43.098Z,7.40
2019-06-10T03:55:12.336Z,7.63
2019-06-10T03:57:42.261Z,10.83
2019-06-10T04:00:14.059Z,6.60
2019-06-10T04:02:43.006Z,7.83
2019-06-10T04:05:13.297Z,6.70
2019-06-10T04:07:42.694Z,8.13
2019-06-10T04:10:12.541Z,10.23
2019-06-10T04:12:43.282Z,7.50
2019-06-10T04:15:12.277Z,7.03
2019-06-10T04:17:42.858Z,8.77
2019-06-10T04:20:14.953Z,7.93
2019-06-10T04:22:41.777Z,12.37
2019-06-10T04:25:12.149Z,8.70
2019-06-10T04:27:42.486Z,7.87
2019-06-10T04:30:12.753Z,8.40
2019-06-10T04:32:42.895Z,7.87
2019-06-10T04:35:12.647Z,8.30
2019-06-10T04:37:42.833Z,9.83
2019-06-10T04:40:13.307Z,8.20
2019-06-10T04:42:43.576Z,7.57
2019-06-10T04:45:12.508Z,8.23
2019-06-10T04:47:43.031Z,5.80
2019-06-10T04:50:24.019Z,7.50
2019-06-10T04:52:43.087Z,7.03
2019-06-10T04:55:12.631Z,7.23
2019-06-10T04:57:43.015Z,9.73
2019-06-10T05:00:14.543Z,9.60
2019-06-10T05:02:43.060Z,6.23
2019-06-10T05:05:13.107Z,9.00
2019-06-10T05:07:42.818Z,9.90
2019-06-10T05:10:12.426Z,8.00
2019-06-10T05:12:43.132Z,6.00
2019-06-10T05:15:12.589Z,10.00
2019-06-10T05:17:43.073Z,7.67
2019-06-10T05:20:12.522Z,6.87
2019-06-10T05:22:42.404Z,10.53
2019-06-10T05:25:12.886Z,11.03
2019-06-10T05:27:42.964Z,6.77
2019-06-10T05:30:12.361Z,8.17
2019-06-10T05:32:42.978Z,8.43
2019-06-10T05:35:12.373Z,7.43
2019-06-10T05:37:42.295Z,8.00
2019-06-10T05:40:12.743Z,8.13
2019-06-10T05:42:42.611Z,9.40
2019-06-10T05:45:12.281Z,8.17
2019-06-10T05:47:42.750Z,9.90
2019-06-10T05:50:12.894Z,8.30
2019-06-10T05:52:42.707Z,8.33
2019-06-10T05:55:12.151Z,7.33
2019-06-10T05:57:42.630Z,9.50
2019-06-10T06:00:14.083Z,7.40
2019-06-10T06:02:43.115Z,8.13
2019-06-10T06:05:12.891Z,8.47
2019-06-10T06:07:42.351Z,9.70
2019-06-10T06:10:13.051Z,8.87
2019-06-10T06:12:42.443Z,9.60
2019-06-10T06:15:12.979Z,10.03
2019-06-10T06:17:43.224Z,10.13
2019-06-10T06:20:13.316Z,10.63
2019-06-10T06:22:42.873Z,11.77
2019-06-10T06:25:15.065Z,9.77
2019-06-10T06:27:44.093Z,9.10
2019-06-10T06:30:18.482Z,10.63
2019-06-10T06:32:43.639Z,8.60
2019-06-10T06:35:12.680Z,7.83
2019-06-10T06:37:42.862Z,13.43
2019-06-10T06:40:13.240Z,9.10
2019-06-10T06:42:43.275Z,7.67
2019-06-10T06:45:12.646Z,7.37
2019-06-10T06:47:43.507Z,9.40
2019-06-10T06:50:13.107Z,7.60
2019-06-10T06:53:15.383Z,6.13
2019-06-10T06:55:12.823Z,6.50
2019-06-10T06:57:43.343Z,6.97
2019-06-10T07:00:37.269Z,4.87
2019-06-10T07:02:43.544Z,5.00
2019-06-10T07:05:12.600Z,8.40
2019-06-10T07:07:43.160Z,8.63
2019-06-10T07:10:12.240Z,5.00
2019-06-10T07:12:43.829Z,4.33
2019-06-10T07:15:12.175Z,5.17
2019-06-10T07:17:41.652Z,5.97
2019-06-10T07:20:12.668Z,4.43
2019-06-10T07:22:42.762Z,5.57
2019-06-10T07:25:12.401Z,3.93
2019-06-10T07:27:45.127Z,6.20
2019-06-10T07:30:14.709Z,7.63
2019-06-10T07:32:45.400Z,6.03
2019-06-10T07:35:12.983Z,8.80
2019-06-10T07:37:43.968Z,5.10
2019-06-10T07:40:13.021Z,7.30
2019-06-10T07:42:43.708Z,6.30
2019-06-10T07:45:13.095Z,8.20
2019-06-10T07:47:43.797Z,5.30
2019-06-10T07:50:12.234Z,6.93
2019-06-10T07:52:46.050Z,5.27
2019-06-10T07:55:12.945Z,5.63
2019-06-10T07:57:43.987Z,5.57
2019-06-10T08:00:13.363Z,7.97
2019-06-10T08:02:44.663Z,8.30
2019-06-10T08:05:14.188Z,9.63
2019-06-10T08:07:44.076Z,8.47
2019-06-10T08:10:13.321Z,11.33
2019-06-10T08:12:44.155Z,12.73
2019-06-10T08:15:12.542Z,10.80
2019-06-10T08:17:42.950Z,7.20
2019-06-10T08:20:13.351Z,7.70
2019-06-10T08:22:50.174Z,7.53
2019-06-10T08:25:12.426Z,5.53
2019-06-10T08:27:43.977Z,6.40
2019-06-10T08:30:21.259Z,6.27
2019-06-10T08:32:46.336Z,5.20
2019-06-10T08:35:12.889Z,5.50
2019-06-10T08:37:43.241Z,6.63
2019-06-10T08:40:12.402Z,7.37
2019-06-10T08:42:43.614Z,5.23
2019-06-10T08:45:12.492Z,6.37
2019-06-10T08:47:41.845Z,5.83
2019-06-10T08:50:12.932Z,5.60
2019-06-10T08:52:56.058Z,5.77
2019-06-10T08:55:12.575Z,6.60
2019-06-10T08:57:45.257Z,6.90
2019-06-10T09:00:15.555Z,5.60
2019-06-10T09:02:45.979Z,6.83
2019-06-10T09:05:23.061Z,8.50
2019-06-10T09:07:54.233Z,10.07
2019-06-10T09:10:22.691Z,5.50
2019-06-10T09:12:54.566Z,7.77
2019-06-10T09:15:23.619Z,11.33
2019-06-10T09:17:52.950Z,6.30
2019-06-10T09:20:23.132Z,7.57
2019-06-10T09:23:13.945Z,8.53
2019-06-10T09:25:22.640Z,6.53
2019-06-10T09:27:54.237Z,8.73
2019-06-10T09:30:22.698Z,6.53
2019-06-10T09:32:55.685Z,6.90
2019-06-10T09:35:24.067Z,6.80
2019-06-10T09:37:55.624Z,9.27
2019-06-10T09:40:22.937Z,10.00
2019-06-10T09:42:54.762Z,10.60
2019-06-10T09:45:22.503Z,5.93
2019-06-10T09:47:58.619Z,8.57
2019-06-10T09:50:25.364Z,6.37
2019-06-10T09:52:57.119Z,7.97
2019-06-10T09:55:26.893Z,7.03
2019-06-10T09:57:59.785Z,8.20
2019-06-10T10:00:34.449Z,7.70
2019-06-10T10:03:03.468Z,8.73
2019-06-10T10:05:33.819Z,10.77
2019-06-10T10:08:02.659Z,11.53
2019-06-10T10:10:39.301Z,8.90
2019-06-10T10:13:12.917Z,6.40
2019-06-10T10:15:41.875Z,10.10
2019-06-10T10:18:13.428Z,8.23
2019-06-10T10:20:44.859Z,7.50
2019-06-10T10:23:13.680Z,7.27
2019-06-10T10:25:44.928Z,9.67
2019-06-10T10:28:13.418Z,8.37
2019-06-10T10:30:44.686Z,10.37
2019-06-10T10:33:12.881Z,7.83
2019-06-10T10:35:43.171Z,5.30
2019-06-10T10:38:14.315Z,6.23
2019-06-10T10:40:43.975Z,4.83
2019-06-10T10:43:27.560Z,7.03
2019-06-10T10:45:45.938Z,7.13
2019-06-10T10:48:14.087Z,8.00
2019-06-10T10:50:44.203Z,8.17
2019-06-10T10:53:13.026Z,6.53
2019-06-10T10:55:42.483Z,6.43
2019-06-10T10:58:12.845Z,4.73
2019-06-10T11:00:45.390Z,6.67
2019-06-10T11:03:13.691Z,8.17
2019-06-10T11:05:46.036Z,6.53
2019-06-10T11:08:14.417Z,9.30
2019-06-10T11:10:45.714Z,5.03
2019-06-10T11:13:14.112Z,6.87
2019-06-10T11:15:43.497Z,8.97
2019-06-10T11:18:14.450Z,5.77
2019-06-10T11:20:43.200Z,5.83
2019-06-10T11:23:12.355Z,5.17
2019-06-10T11:25:43.126Z,6.10
2019-06-10T11:28:11.971Z,8.03
2019-06-10T11:30:42.656Z,10.73
2019-06-10T11:33:11.013Z,7.73
2019-06-10T11:35:42.807Z,6.23
2019-06-10T11:38:12.858Z,7.33
2019-06-10T11:40:42.880Z,8.90
2019-06-10T11:43:13.078Z,8.43
2019-06-10T11:45:47.731Z,6.47
2019-06-10T11:48:12.957Z,5.77
2019-06-10T11:50:49.202Z,5.97
2019-06-10T11:53:23.077Z,6.67
2019-06-10T11:55:52.000Z,8.37
2019-06-10T11:58:22.449Z,6.63
2019-06-10T12:00:55.877Z,5.90
2019-06-10T12:03:23.054Z,6.37
2019-06-10T12:05:55.474Z,7.60
2019-06-10T12:08:23.721Z,7.80
2019-06-10T12:10:56.707Z,5.77
2019-06-10T12:13:22.707Z,5.60
2019-06-10T12:16:50.428Z,5.43
2019-06-10T12:18:23.092Z,6.30
2019-06-10T12:20:59.228Z,5.00
2019-06-10T12:23:23.794Z,10.20
2019-06-10T12:25:54.452Z,6.57
2019-06-10T12:28:22.447Z,4.27
2019-06-10T12:30:57.505Z,6.30
2019-06-10T12:33:25.557Z,6.43
2019-06-10T12:35:58.547Z,7.97
2019-06-10T12:38:25.315Z,6.03
2019-06-10T12:40:56.892Z,5.10
2019-06-10T12:43:24.697Z,6.10
2019-06-10T12:45:55.696Z,6.90
2019-06-10T12:48:24.321Z,7.97
2019-06-10T12:50:57.148Z,5.20
2019-06-10T12:56:15.311Z,14.70
2019-06-10T12:58:44.988Z,7.57
2019-06-10T13:01:13.802Z,5.57
2019-06-10T13:03:43.632Z,6.00
2019-06-10T13:06:13.268Z,8.67
2019-06-10T13:08:43.020Z,5.60
2019-06-10T13:11:13.389Z,6.63
2019-06-10T13:13:43.518Z,6.63
2019-06-10T13:16:14.056Z,8.80
2019-06-10T13:18:42.058Z,5.57
2019-06-10T13:21:16.459Z,6.13
2019-06-10T13:23:42.871Z,6.13
2019-06-10T13:26:16.479Z,7.40
2019-06-10T13:28:44.630Z,7.70
2019-06-10T13:31:35.272Z,5.60
2019-06-10T13:34:10.914Z,9.07
2019-06-10T13:36:37.075Z,5.90
2019-06-10T13:39:10.351Z,6.80
2019-06-10T13:41:45.908Z,8.93
2019-06-10T13:44:16.730Z,7.67
2019-06-10T13:46:49.081Z,8.40
2019-06-10T13:49:22.751Z,5.80
2019-06-10T13:51:53.435Z,10.27
2019-06-10T13:54:24.019Z,5.87
2019-06-10T13:56:54.240Z,6.67
2019-06-10T13:59:25.036Z,9.70
2019-06-10T14:01:59.824Z,10.20
2019-06-10T14:04:30.154Z,10.27
2019-06-10T14:07:01.502Z,11.80
2019-06-10T14:09:33.018Z,11.00
2019-06-10T14:12:03.941Z,8.77
2019-06-10T14:14:33.889Z,11.13
2019-06-10T14:17:05.598Z,14.83
2019-06-10T14:19:35.629Z,10.87
2019-06-10T14:22:07.838Z,13.73
2019-06-10T14:24:37.867Z,14.67
2019-06-10T14:27:09.165Z,16.83
2019-06-10T14:29:41.984Z,17.13
2019-06-10T14:32:14.345Z,14.43
2019-06-10T14:34:43.861Z,12.73
2019-06-10T14:37:15.534Z,10.50
2019-06-10T14:39:45.918Z,10.63
2019-06-10T14:42:16.313Z,12.30
2019-06-10T14:44:47.010Z,11.77
2019-06-10T14:47:17.069Z,7.90
2019-06-10T14:49:47.215Z,11.40
2019-06-10T14:52:17.129Z,12.80
2019-06-10T14:54:47.075Z,7.53
2019-06-10T14:57:18.363Z,7.30
2019-06-10T14:59:49.006Z,10.90
2019-06-10T15:02:22.016Z,8.97
2019-06-10T15:04:53.277Z,11.57
2019-06-10T15:07:24.120Z,9.93
2019-06-10T15:09:54.900Z,8.90
2019-06-10T15:12:24.797Z,9.17
2019-06-10T15:14:55.091Z,10.17
2019-06-10T15:17:25.545Z,12.57
2019-06-10T15:19:55.601Z,11.53
2019-06-10T15:22:25.718Z,12.53
2019-06-10T15:24:56.045Z,9.97
2019-06-10T15:27:30.618Z,11.77
2019-06-10T15:29:57.824Z,10.10
2019-06-10T15:32:34.477Z,13.33
2019-06-10T15:35:00.224Z,9.77
2019-06-10T15:37:29.737Z,11.00
2019-06-10T15:46:25.277Z,7.67
2019-06-10T15:49:02.189Z,9.00
2019-06-10T15:51:37.895Z,8.00
2019-06-10T15:54:33.320Z,10.13
2019-06-10T16:03:29.005Z,9.10
2019-06-10T16:08:58.615Z,7.80
2019-06-10T16:14:54.852Z,11.30
2019-06-10T16:17:53.872Z,10.57
2019-06-10T16:26:28.087Z,7.33
2019-06-10T16:29:07.293Z,12.37
2019-06-10T16:34:48.331Z,8.27
2019-06-10T16:37:46.462Z,9.70
2019-06-10T16:40:57.863Z,9.90
2019-06-10T16:43:29.709Z,6.90
2019-06-10T16:49:12.700Z,8.40
2019-06-10T16:51:52.036Z,7.07
2019-06-10T16:54:32.966Z,7.80
2019-06-10T16:57:24.063Z,9.90
2019-06-10T17:03:52.510Z,9.73
2019-06-10T17:06:42.354Z,9.40
2019-06-10T17:09:29.554Z,8.03
2019-06-10T17:12:24.636Z,11.33
2019-06-10T17:15:32.081Z,7.50
2019-06-10T17:18:13.966Z,9.00
2019-06-10T17:21:06.949Z,6.70
2019-06-10T17:23:45.744Z,7.93
2019-06-10T17:26:15.838Z,6.50
2019-06-10T17:28:46.586Z,9.30
2019-06-10T17:31:16.658Z,9.40
2019-06-10T17:33:47.062Z,9.73
2019-06-10T17:36:20.158Z,14.53
2019-06-10T17:38:52.365Z,8.03
2019-06-10T17:41:25.878Z,8.80
2019-06-10T17:43:55.485Z,7.80
2019-06-10T17:46:27.849Z,9.43
2019-06-10T17:48:58.060Z,11.80
2019-06-10T17:51:29.445Z,9.83
2019-06-10T17:54:02.290Z,8.57
2019-06-10T17:56:35.970Z,11.97
2019-06-10T17:59:04.136Z,9.00
2019-06-10T18:01:37.937Z,12.80
2019-06-10T18:04:08.358Z,9.33
2019-06-10T18:06:42.462Z,12.23
2019-06-10T18:09:12.497Z,13.57
2019-06-10T18:11:43.094Z,9.13
2019-06-10T18:14:14.415Z,10.80
2019-06-10T18:16:45.080Z,12.27
2019-06-10T18:19:15.182Z,11.83
2019-06-10T18:21:46.745Z,12.07
2019-06-10T18:24:20.568Z,12.43
2019-06-10T18:26:49.086Z,11.13
2019-06-10T18:29:20.050Z,10.50
2019-06-10T18:31:52.912Z,12.27
2019-06-10T18:34:22.765Z,10.73
2019-06-10T18:36:53.736Z,13.77
2019-06-10T18:39:44.982Z,8.90
2019-06-10T18:42:15.905Z,11.97
2019-06-10T18:44:46.535Z,10.53
2019-06-10T18:47:19.790Z,11.10
2019-06-10T18:49:49.781Z,9.73
2019-06-10T18:52:23.178Z,8.70
2019-06-10T18:54:52.890Z,9.97
2019-06-10T18:57:23.550Z,11.40
2019-06-10T18:59:53.758Z,9.50
2019-06-10T19:02:24.292Z,11.97
2019-06-10T19:04:57.228Z,9.53
2019-06-10T19:07:28.800Z,13.30
2019-06-10T19:09:58.972Z,15.43
2019-06-10T19:12:30.941Z,14.20
2019-06-10T19:15:04.887Z,12.40
2019-06-10T19:17:39.569Z,10.80
2019-06-10T19:20:08.525Z,12.77
2019-06-10T19:22:39.370Z,12.07
2019-06-10T19:25:12.730Z,13.83
2019-06-10T19:27:44.535Z,14.47
2019-06-10T19:30:15.422Z,15.10
2019-06-10T19:32:45.908Z,16.53
2019-06-10T19:35:16.409Z,13.90
2019-06-10T19:37:46.891Z,18.20
2019-06-10T19:40:17.348Z,16.07
2019-06-10T19:42:47.946Z,17.77
2019-06-10T19:45:19.626Z,16.03
2019-06-10T19:47:52.616Z,19.33
2019-06-10T19:50:22.496Z,14.50
2019-06-10T19:52:54.866Z,14.40
2019-06-10T19:55:25.055Z,13.67
2019-06-10T19:57:55.623Z,11.77
2019-06-10T20:00:29.126Z,14.40
2019-06-10T20:02:59.856Z,13.43
2019-06-10T20:05:34.862Z,12.90
2019-06-10T20:08:05.583Z,12.77
2019-06-10T20:10:36.289Z,15.60
2019-06-10T20:13:06.953Z,14.70
2019-06-10T20:15:42.069Z,12.93
2019-06-10T20:18:13.017Z,13.73
2019-06-10T20:20:47.057Z,13.30
2019-06-10T20:23:18.058Z,13.90
2019-06-10T20:25:48.857Z,13.80
2019-06-10T20:28:22.408Z,14.00
2019-06-10T20:30:53.136Z,13.60
2019-06-10T20:33:35.876Z,20.17
2019-06-10T20:36:07.587Z,12.70
2019-06-10T20:38:37.772Z,14.90
2019-06-10T20:41:08.978Z,15.30
2019-06-10T20:43:47.132Z,11.70
2019-06-10T20:46:16.937Z,13.00
2019-06-10T20:48:49.422Z,16.03
2019-06-10T20:51:19.772Z,14.47
2019-06-10T20:53:50.106Z,16.20
2019-06-10T20:56:23.836Z,16.23
2019-06-10T20:58:54.268Z,15.37
2019-06-10T21:01:25.640Z,15.67
2019-06-10T21:03:56.149Z,16.93
2019-06-10T21:06:27.075Z,17.50
2019-06-10T21:08:57.872Z,18.83
2019-06-10T21:11:28.209Z,15.00
2019-06-10T21:13:58.456Z,16.07
2019-06-10T21:16:28.764Z,15.27
2019-06-10T21:18:59.651Z,14.50
2019-06-10T21:21:29.465Z,14.00
2019-06-10T21:24:02.093Z,14.70
2019-06-10T21:26:32.622Z,16.30
2019-06-10T21:29:03.817Z,16.23
2019-06-10T21:31:34.265Z,15.97
2019-06-10T21:34:04.278Z,17.50
2019-06-10T21:36:34.530Z,15.20
2019-06-10T21:39:05.931Z,15.43
2019-06-10T21:41:36.322Z,15.00
2019-06-10T21:44:06.477Z,14.23
2019-06-10T21:46:37.056Z,11.50
2019-06-10T21:49:07.648Z,11.77
2019-06-10T21:51:43.681Z,13.37
2019-06-10T21:54:12.439Z,14.80
2019-06-10T21:56:46.892Z,14.27
2019-06-10T21:59:17.202Z,12.90
2019-06-10T22:01:47.605Z,11.83
2019-06-10T22:04:18.083Z,13.60
2019-06-10T22:06:49.587Z,10.63
2019-06-10T22:09:19.993Z,11.40
2019-06-10T22:11:52.272Z,11.37
2019-06-10T22:14:22.872Z,15.80
2019-06-10T22:16:56.143Z,10.80
2019-06-10T22:19:25.695Z,10.00
2019-06-10T22:21:56.780Z,11.13
2019-06-10T22:24:27.082Z,11.27
2019-06-10T22:26:57.093Z,11.77
2019-06-10T22:29:27.666Z,10.63
2019-06-10T22:31:57.701Z,9.43
2019-06-10T22:34:28.054Z,10.13
2019-06-10T22:36:58.685Z,8.70
2019-06-10T22:39:29.364Z,10.83
2019-06-10T22:42:03.095Z,7.43
2019-06-10T22:44:33.210Z,9.87
2019-06-10T22:47:03.375Z,7.90
2019-06-10T22:49:33.914Z,7.53
2019-06-10T22:52:04.114Z,8.30
2019-06-10T22:54:34.449Z,7.57
2019-06-10T22:57:04.367Z,9.93
2019-06-10T22:59:34.812Z,6.70
2019-06-10T23:02:04.876Z,8.13
2019-06-10T23:04:35.189Z,6.33
2019-06-10T23:07:05.204Z,8.23
2019-06-10T23:09:38.343Z,6.37
2019-06-10T23:12:07.713Z,7.40
2019-06-10T23:14:37.727Z,10.13
2019-06-10T23:17:08.978Z,10.30
2019-06-10T23:19:39.109Z,7.10
2019-06-10T23:22:09.621Z,6.10
2019-06-10T23:24:39.796Z,5.77
2019-06-10T23:27:10.064Z,5.00
2019-06-10T23:29:42.615Z,4.53
2019-06-10T23:32:13.070Z,4.10
2019-06-10T23:34:44.704Z,4.43
2019-06-10T23:37:15.070Z,3.77
2019-06-10T23:39:45.180Z,4.90
2019-06-10T23:42:18.444Z,6.30
2019-06-10T23:44:48.664Z,3.07
2019-06-10T23:47:18.955Z,4.57
2019-06-10T23:49:48.736Z,4.30
2019-06-10T23:52:19.238Z,2.97
2019-06-10T23:54:49.321Z,3.30
2019-06-10T23:57:22.217Z,4.30
2019-06-10T23:59:52.522Z,4.30
